sensor_id;sensor_type;location;lat;lon;timestamp;temperature;humidity
51337;DHT22;37421;51.176;17.196;2022-08-19T00:00:15;25.60;99.90
51337;DHT22;37421;51.176;17.196;2022-08-19T00:02:41;25.60;99.90
51337;DHT22;37421;51.176;17.196;2022-08-19T00:05:07;25.40;99.90
51337;DHT22;37421;51.176;17.196;2022-08-19T00:07:33;25.40;99.90
51337;DHT22;37421;51.176;17.196;2022-08-19T00:09:59;25.40;99.90
51337;DHT22;37421;51.176;17.196;2022-08-19T00:12:25;25.30;99.90
51337;DHT22;37421;51.176;17.196;2022-08-19T00:14:52;25.20;99.90
51337;DHT22;37421;51.176;17.196;2022-08-19T00:17:20;25.20;99.90
51337;DHT22;37421;51.176;17.196;2022-08-19T00:19:46;25.10;99.90
51337;DHT22;37421;51.176;17.196;2022-08-19T00:22:12;25.10;99.90
51337;DHT22;37421;51.176;17.196;2022-08-19T00:24:37;25.00;99.90
51337;DHT22;37421;51.176;17.196;2022-08-19T00:27:04;25.00;99.90
51337;DHT22;37421;51.176;17.196;2022-08-19T00:29:30;25.00;99.90
51337;DHT22;37421;51.176;17.196;2022-08-19T00:31:57;24.90;99.90
51337;DHT22;37421;51.176;17.196;2022-08-19T00:34:24;24.90;99.90
51337;DHT22;37421;51.176;17.196;2022-08-19T00:36:53;24.90;99.90
51337;DHT22;37421;51.176;17.196;2022-08-19T00:39:19;24.80;99.90
51337;DHT22;37421;51.176;17.196;2022-08-19T00:41:45;24.80;99.90
51337;DHT22;37421;51.176;17.196;2022-08-19T00:44:15;24.80;99.90
51337;DHT22;37421;51.176;17.196;2022-08-19T00:46:43;24.80;99.90
51337;DHT22;37421;51.176;17.196;2022-08-19T00:49:10;24.70;99.90
51337;DHT22;37421;51.176;17.196;2022-08-19T00:51:40;24.70;99.90
51337;DHT22;37421;51.176;17.196;2022-08-19T00:54:06;24.70;99.90
51337;DHT22;37421;51.176;17.196;2022-08-19T00:56:32;24.70;99.90
51337;DHT22;37421;51.176;17.196;2022-08-19T00:58:59;24.70;99.90
51337;DHT22;37421;51.176;17.196;2022-08-19T01:01:25;24.70;99.90
51337;DHT22;37421;51.176;17.196;2022-08-19T01:03:51;24.70;99.90
51337;DHT22;37421;51.176;17.196;2022-08-19T01:06:17;24.70;99.90
51337;DHT22;37421;51.176;17.196;2022-08-19T01:08:43;24.80;99.90
51337;DHT22;37421;51.176;17.196;2022-08-19T01:11:08;24.70;99.90
51337;DHT22;37421;51.176;17.196;2022-08-19T01:13:34;24.70;99.90
51337;DHT22;37421;51.176;17.196;2022-08-19T01:16:03;24.60;99.90
51337;DHT22;37421;51.176;17.196;2022-08-19T01:18:30;24.60;99.90
51337;DHT22;37421;51.176;17.196;2022-08-19T01:20:58;24.60;99.90
51337;DHT22;37421;51.176;17.196;2022-08-19T01:23:27;24.60;99.90
51337;DHT22;37421;51.176;17.196;2022-08-19T01:26:10;24.70;99.90
51337;DHT22;37421;51.176;17.196;2022-08-19T01:28:37;24.70;99.90
51337;DHT22;37421;51.176;17.196;2022-08-19T01:31:03;24.70;99.90
51337;DHT22;37421;51.176;17.196;2022-08-19T01:33:28;24.60;99.90
51337;DHT22;37421;51.176;17.196;2022-08-19T01:36:06;24.70;99.90
51337;DHT22;37421;51.176;17.196;2022-08-19T01:38:34;24.70;99.90
51337;DHT22;37421;51.176;17.196;2022-08-19T01:41:04;24.80;99.90
51337;DHT22;37421;51.176;17.196;2022-08-19T01:43:30;24.80;99.90
51337;DHT22;37421;51.176;17.196;2022-08-19T01:45:56;24.70;99.90
51337;DHT22;37421;51.176;17.196;2022-08-19T01:48:22;24.70;99.90
51337;DHT22;37421;51.176;17.196;2022-08-19T01:50:49;24.70;99.90
51337;DHT22;37421;51.176;17.196;2022-08-19T01:53:15;24.60;99.90
51337;DHT22;37421;51.176;17.196;2022-08-19T01:55:41;24.50;99.90
51337;DHT22;37421;51.176;17.196;2022-08-19T01:58:11;24.50;99.90
51337;DHT22;37421;51.176;17.196;2022-08-19T02:00:37;24.50;99.90
51337;DHT22;37421;51.176;17.196;2022-08-19T02:03:04;24.40;99.90
51337;DHT22;37421;51.176;17.196;2022-08-19T02:05:30;24.40;99.90
51337;DHT22;37421;51.176;17.196;2022-08-19T02:07:56;24.40;99.90
51337;DHT22;37421;51.176;17.196;2022-08-19T02:10:22;24.40;99.90
51337;DHT22;37421;51.176;17.196;2022-08-19T02:12:49;24.30;99.90
51337;DHT22;37421;51.176;17.196;2022-08-19T02:15:15;24.30;99.90
51337;DHT22;37421;51.176;17.196;2022-08-19T02:17:41;24.30;99.90
51337;DHT22;37421;51.176;17.196;2022-08-19T02:20:07;24.30;99.90
51337;DHT22;37421;51.176;17.196;2022-08-19T02:22:34;24.30;99.90
51337;DHT22;37421;51.176;17.196;2022-08-19T02:25:00;24.20;99.90
51337;DHT22;37421;51.176;17.196;2022-08-19T02:27:27;24.10;99.90
51337;DHT22;37421;51.176;17.196;2022-08-19T02:29:53;24.10;99.90
51337;DHT22;37421;51.176;17.196;2022-08-19T02:32:19;24.10;99.90
51337;DHT22;37421;51.176;17.196;2022-08-19T02:34:47;24.10;99.90
51337;DHT22;37421;51.176;17.196;2022-08-19T02:37:13;24.10;99.90
51337;DHT22;37421;51.176;17.196;2022-08-19T02:39:58;24.10;99.90
51337;DHT22;37421;51.176;17.196;2022-08-19T02:42:24;24.00;99.90
51337;DHT22;37421;51.176;17.196;2022-08-19T02:44:50;23.90;99.90
51337;DHT22;37421;51.176;17.196;2022-08-19T02:47:17;23.90;99.90
51337;DHT22;37421;51.176;17.196;2022-08-19T02:49:44;23.90;99.90
51337;DHT22;37421;51.176;17.196;2022-08-19T02:52:10;23.80;99.90
51337;DHT22;37421;51.176;17.196;2022-08-19T02:54:36;23.80;99.90
51337;DHT22;37421;51.176;17.196;2022-08-19T02:57:03;23.90;99.90
51337;DHT22;37421;51.176;17.196;2022-08-19T02:59:30;23.80;99.90
51337;DHT22;37421;51.176;17.196;2022-08-19T03:01:55;23.70;99.90
51337;DHT22;37421;51.176;17.196;2022-08-19T03:04:21;23.70;99.90
51337;DHT22;37421;51.176;17.196;2022-08-19T03:06:48;23.70;99.90
51337;DHT22;37421;51.176;17.196;2022-08-19T03:09:14;23.70;99.90
51337;DHT22;37421;51.176;17.196;2022-08-19T03:11:40;23.70;99.90
51337;DHT22;37421;51.176;17.196;2022-08-19T03:14:06;23.60;99.90
51337;DHT22;37421;51.176;17.196;2022-08-19T03:16:34;23.60;99.90
51337;DHT22;37421;51.176;17.196;2022-08-19T03:19:01;23.50;99.90
51337;DHT22;37421;51.176;17.196;2022-08-19T03:21:31;23.50;99.90
51337;DHT22;37421;51.176;17.196;2022-08-19T03:23:59;23.40;99.90
51337;DHT22;37421;51.176;17.196;2022-08-19T03:26:25;23.40;99.90
51337;DHT22;37421;51.176;17.196;2022-08-19T03:28:51;23.40;99.90
51337;DHT22;37421;51.176;17.196;2022-08-19T03:31:19;23.30;99.90
51337;DHT22;37421;51.176;17.196;2022-08-19T03:33:47;23.30;99.90
51337;DHT22;37421;51.176;17.196;2022-08-19T03:36:14;23.20;99.90
51337;DHT22;37421;51.176;17.196;2022-08-19T03:38:41;23.10;99.90
51337;DHT22;37421;51.176;17.196;2022-08-19T03:41:09;23.00;99.90
51337;DHT22;37421;51.176;17.196;2022-08-19T03:43:39;23.00;99.90
51337;DHT22;37421;51.176;17.196;2022-08-19T03:46:07;22.90;99.90
51337;DHT22;37421;51.176;17.196;2022-08-19T03:48:34;22.90;99.90
51337;DHT22;37421;51.176;17.196;2022-08-19T03:51:00;22.90;99.90
51337;DHT22;37421;51.176;17.196;2022-08-19T03:53:27;23.00;99.90
51337;DHT22;37421;51.176;17.196;2022-08-19T03:55:54;22.90;99.90
51337;DHT22;37421;51.176;17.196;2022-08-19T03:58:21;22.90;99.90
51337;DHT22;37421;51.176;17.196;2022-08-19T04:00:46;22.90;99.90
51337;DHT22;37421;51.176;17.196;2022-08-19T04:03:12;23.00;99.90
51337;DHT22;37421;51.176;17.196;2022-08-19T04:05:38;22.90;99.90
51337;DHT22;37421;51.176;17.196;2022-08-19T04:08:04;22.90;99.90
51337;DHT22;37421;51.176;17.196;2022-08-19T04:10:35;22.90;99.90
51337;DHT22;37421;51.176;17.196;2022-08-19T04:13:01;22.90;99.90
51337;DHT22;37421;51.176;17.196;2022-08-19T04:15:26;22.90;99.90
51337;DHT22;37421;51.176;17.196;2022-08-19T04:17:59;22.90;99.90
51337;DHT22;37421;51.176;17.196;2022-08-19T04:20:24;22.90;99.90
51337;DHT22;37421;51.176;17.196;2022-08-19T04:22:50;22.90;99.90
51337;DHT22;37421;51.176;17.196;2022-08-19T04:25:16;23.00;99.90
51337;DHT22;37421;51.176;17.196;2022-08-19T04:27:42;23.00;99.90
51337;DHT22;37421;51.176;17.196;2022-08-19T04:30:12;23.00;99.90
51337;DHT22;37421;51.176;17.196;2022-08-19T04:32:38;23.10;99.90
51337;DHT22;37421;51.176;17.196;2022-08-19T04:35:04;23.10;99.90
51337;DHT22;37421;51.176;17.196;2022-08-19T04:37:30;23.10;99.90
51337;DHT22;37421;51.176;17.196;2022-08-19T04:39:58;23.10;99.90
51337;DHT22;37421;51.176;17.196;2022-08-19T04:42:43;23.20;99.90
51337;DHT22;37421;51.176;17.196;2022-08-19T04:45:10;23.20;99.90
51337;DHT22;37421;51.176;17.196;2022-08-19T04:47:37;23.20;99.90
51337;DHT22;37421;51.176;17.196;2022-08-19T04:50:03;23.20;99.90
51337;DHT22;37421;51.176;17.196;2022-08-19T04:52:30;23.30;99.90
51337;DHT22;37421;51.176;17.196;2022-08-19T04:54:57;23.40;99.90
51337;DHT22;37421;51.176;17.196;2022-08-19T04:57:23;23.40;99.90
51337;DHT22;37421;51.176;17.196;2022-08-19T04:59:53;23.50;99.90
51337;DHT22;37421;51.176;17.196;2022-08-19T05:02:19;23.60;99.90
51337;DHT22;37421;51.176;17.196;2022-08-19T05:04:44;23.60;99.90
51337;DHT22;37421;51.176;17.196;2022-08-19T05:07:10;23.70;99.90
51337;DHT22;37421;51.176;17.196;2022-08-19T05:09:37;23.70;99.90
51337;DHT22;37421;51.176;17.196;2022-08-19T05:12:03;23.70;99.90
51337;DHT22;37421;51.176;17.196;2022-08-19T05:14:29;23.70;99.90
51337;DHT22;37421;51.176;17.196;2022-08-19T05:16:55;23.70;99.90
51337;DHT22;37421;51.176;17.196;2022-08-19T05:19:20;23.80;99.90
51337;DHT22;37421;51.176;17.196;2022-08-19T05:22:05;23.80;99.90
51337;DHT22;37421;51.176;17.196;2022-08-19T05:24:49;23.80;99.90
51337;DHT22;37421;51.176;17.196;2022-08-19T05:27:18;23.80;99.90
51337;DHT22;37421;51.176;17.196;2022-08-19T05:29:43;23.90;99.90
51337;DHT22;37421;51.176;17.196;2022-08-19T05:32:09;23.90;99.90
51337;DHT22;37421;51.176;17.196;2022-08-19T05:34:36;24.00;99.90
51337;DHT22;37421;51.176;17.196;2022-08-19T05:37:03;24.10;99.90
51337;DHT22;37421;51.176;17.196;2022-08-19T05:39:30;24.10;99.90
51337;DHT22;37421;51.176;17.196;2022-08-19T05:41:59;24.10;99.90
51337;DHT22;37421;51.176;17.196;2022-08-19T05:44:26;24.20;99.90
51337;DHT22;37421;51.176;17.196;2022-08-19T05:46:52;24.20;99.90
51337;DHT22;37421;51.176;17.196;2022-08-19T05:49:19;24.20;99.90
51337;DHT22;37421;51.176;17.196;2022-08-19T05:51:46;24.30;99.90
51337;DHT22;37421;51.176;17.196;2022-08-19T05:54:12;24.30;99.90
51337;DHT22;37421;51.176;17.196;2022-08-19T05:56:39;24.30;99.90
51337;DHT22;37421;51.176;17.196;2022-08-19T05:59:06;24.40;99.90
51337;DHT22;37421;51.176;17.196;2022-08-19T06:01:37;24.40;99.90
51337;DHT22;37421;51.176;17.196;2022-08-19T06:04:03;24.50;99.90
51337;DHT22;37421;51.176;17.196;2022-08-19T06:06:29;24.50;99.90
51337;DHT22;37421;51.176;17.196;2022-08-19T06:08:55;24.60;99.90
51337;DHT22;37421;51.176;17.196;2022-08-19T06:11:32;24.70;99.90
51337;DHT22;37421;51.176;17.196;2022-08-19T06:14:00;24.70;99.90
51337;DHT22;37421;51.176;17.196;2022-08-19T06:16:26;24.80;99.90
51337;DHT22;37421;51.176;17.196;2022-08-19T06:18:53;24.80;99.90
51337;DHT22;37421;51.176;17.196;2022-08-19T06:21:20;24.80;99.90
51337;DHT22;37421;51.176;17.196;2022-08-19T06:23:46;24.80;99.90
51337;DHT22;37421;51.176;17.196;2022-08-19T06:26:13;24.80;99.90
51337;DHT22;37421;51.176;17.196;2022-08-19T06:28:39;24.80;99.90
51337;DHT22;37421;51.176;17.196;2022-08-19T06:31:15;24.80;99.90
51337;DHT22;37421;51.176;17.196;2022-08-19T06:33:42;24.90;99.90
51337;DHT22;37421;51.176;17.196;2022-08-19T06:36:16;25.00;99.90
51337;DHT22;37421;51.176;17.196;2022-08-19T06:38:42;25.10;99.90
51337;DHT22;37421;51.176;17.196;2022-08-19T06:41:08;25.10;99.90
51337;DHT22;37421;51.176;17.196;2022-08-19T06:43:34;25.10;99.90
51337;DHT22;37421;51.176;17.196;2022-08-19T06:46:01;25.20;99.90
51337;DHT22;37421;51.176;17.196;2022-08-19T06:48:29;25.20;99.90
51337;DHT22;37421;51.176;17.196;2022-08-19T06:50:55;25.20;99.90
51337;DHT22;37421;51.176;17.196;2022-08-19T06:53:21;25.30;99.90
51337;DHT22;37421;51.176;17.196;2022-08-19T06:55:47;25.40;99.90
51337;DHT22;37421;51.176;17.196;2022-08-19T06:58:13;25.50;99.90
51337;DHT22;37421;51.176;17.196;2022-08-19T07:00:39;25.50;99.90
51337;DHT22;37421;51.176;17.196;2022-08-19T07:03:05;25.60;99.90
51337;DHT22;37421;51.176;17.196;2022-08-19T07:05:31;25.60;99.90
51337;DHT22;37421;51.176;17.196;2022-08-19T07:07:57;25.70;99.90
51337;DHT22;37421;51.176;17.196;2022-08-19T07:10:23;25.80;99.90
51337;DHT22;37421;51.176;17.196;2022-08-19T07:12:49;25.90;99.90
51337;DHT22;37421;51.176;17.196;2022-08-19T07:15:15;25.90;99.90
51337;DHT22;37421;51.176;17.196;2022-08-19T07:17:41;26.00;99.90
51337;DHT22;37421;51.176;17.196;2022-08-19T07:20:09;26.10;99.90
51337;DHT22;37421;51.176;17.196;2022-08-19T07:22:35;26.10;99.90
51337;DHT22;37421;51.176;17.196;2022-08-19T07:25:02;26.10;99.90
51337;DHT22;37421;51.176;17.196;2022-08-19T07:27:29;26.10;99.90
51337;DHT22;37421;51.176;17.196;2022-08-19T07:29:55;26.10;99.90
51337;DHT22;37421;51.176;17.196;2022-08-19T07:32:21;26.30;99.90
51337;DHT22;37421;51.176;17.196;2022-08-19T07:34:47;26.30;99.90
51337;DHT22;37421;51.176;17.196;2022-08-19T07:37:12;26.20;99.90
51337;DHT22;37421;51.176;17.196;2022-08-19T07:39:38;26.40;99.90
51337;DHT22;37421;51.176;17.196;2022-08-19T07:42:06;26.50;99.90
51337;DHT22;37421;51.176;17.196;2022-08-19T07:44:33;26.50;99.90
51337;DHT22;37421;51.176;17.196;2022-08-19T07:47:00;26.50;99.90
51337;DHT22;37421;51.176;17.196;2022-08-19T07:49:26;26.40;99.90
51337;DHT22;37421;51.176;17.196;2022-08-19T07:51:53;26.60;99.90
51337;DHT22;37421;51.176;17.196;2022-08-19T07:54:20;26.70;99.90
51337;DHT22;37421;51.176;17.196;2022-08-19T07:56:47;26.70;99.90
51337;DHT22;37421;51.176;17.196;2022-08-19T07:59:12;26.70;99.90
51337;DHT22;37421;51.176;17.196;2022-08-19T08:01:38;26.80;99.90
51337;DHT22;37421;51.176;17.196;2022-08-19T08:04:05;26.80;99.90
51337;DHT22;37421;51.176;17.196;2022-08-19T08:06:49;26.80;99.90
51337;DHT22;37421;51.176;17.196;2022-08-19T08:09:36;26.80;99.90
51337;DHT22;37421;51.176;17.196;2022-08-19T08:12:23;27.00;99.90
51337;DHT22;37421;51.176;17.196;2022-08-19T08:14:51;27.00;99.90
51337;DHT22;37421;51.176;17.196;2022-08-19T08:17:20;27.00;99.90
51337;DHT22;37421;51.176;17.196;2022-08-19T08:19:46;27.00;99.90
51337;DHT22;37421;51.176;17.196;2022-08-19T08:22:14;27.10;99.90
51337;DHT22;37421;51.176;17.196;2022-08-19T08:25:10;27.00;99.90
51337;DHT22;37421;51.176;17.196;2022-08-19T08:27:37;27.10;99.90
51337;DHT22;37421;51.176;17.196;2022-08-19T08:30:09;27.10;99.90
51337;DHT22;37421;51.176;17.196;2022-08-19T08:32:36;27.10;99.90
51337;DHT22;37421;51.176;17.196;2022-08-19T08:35:03;27.20;99.90
51337;DHT22;37421;51.176;17.196;2022-08-19T08:37:29;27.30;99.90
51337;DHT22;37421;51.176;17.196;2022-08-19T08:39:55;27.30;99.90
51337;DHT22;37421;51.176;17.196;2022-08-19T08:42:24;27.30;99.90
51337;DHT22;37421;51.176;17.196;2022-08-19T08:47:21;27.30;99.90
51337;DHT22;37421;51.176;17.196;2022-08-19T08:49:50;27.40;99.90
51337;DHT22;37421;51.176;17.196;2022-08-19T08:52:25;27.40;99.90
51337;DHT22;37421;51.176;17.196;2022-08-19T08:54:52;27.50;99.90
51337;DHT22;37421;51.176;17.196;2022-08-19T08:57:32;27.50;99.90
51337;DHT22;37421;51.176;17.196;2022-08-19T09:00:01;27.50;99.90
51337;DHT22;37421;51.176;17.196;2022-08-19T09:02:30;27.60;99.90
51337;DHT22;37421;51.176;17.196;2022-08-19T09:04:56;27.60;99.90
51337;DHT22;37421;51.176;17.196;2022-08-19T09:07:25;27.70;99.90
51337;DHT22;37421;51.176;17.196;2022-08-19T09:09:54;27.70;99.90
51337;DHT22;37421;51.176;17.196;2022-08-19T09:12:31;27.70;99.90
51337;DHT22;37421;51.176;17.196;2022-08-19T09:15:00;27.70;99.90
51337;DHT22;37421;51.176;17.196;2022-08-19T09:17:28;27.70;99.90
51337;DHT22;37421;51.176;17.196;2022-08-19T09:22:39;27.70;99.90
51337;DHT22;37421;51.176;17.196;2022-08-19T09:25:06;27.70;99.90
51337;DHT22;37421;51.176;17.196;2022-08-19T09:27:32;27.70;99.90
51337;DHT22;37421;51.176;17.196;2022-08-19T09:29:58;27.80;99.90
51337;DHT22;37421;51.176;17.196;2022-08-19T09:32:24;27.70;99.90
51337;DHT22;37421;51.176;17.196;2022-08-19T09:34:52;27.70;99.90
51337;DHT22;37421;51.176;17.196;2022-08-19T09:37:20;27.80;99.90
51337;DHT22;37421;51.176;17.196;2022-08-19T09:39:51;27.90;99.90
51337;DHT22;37421;51.176;17.196;2022-08-19T09:42:16;27.90;99.90
51337;DHT22;37421;51.176;17.196;2022-08-19T09:44:42;27.90;99.90
51337;DHT22;37421;51.176;17.196;2022-08-19T09:47:08;27.90;99.90
51337;DHT22;37421;51.176;17.196;2022-08-19T09:49:34;28.00;99.90
51337;DHT22;37421;51.176;17.196;2022-08-19T09:52:00;28.10;99.90
51337;DHT22;37421;51.176;17.196;2022-08-19T09:54:26;28.10;99.90
51337;DHT22;37421;51.176;17.196;2022-08-19T09:56:53;28.10;99.90
51337;DHT22;37421;51.176;17.196;2022-08-19T09:59:19;28.00;99.90
51337;DHT22;37421;51.176;17.196;2022-08-19T10:01:45;28.10;99.90
51337;DHT22;37421;51.176;17.196;2022-08-19T10:04:10;28.10;99.90
51337;DHT22;37421;51.176;17.196;2022-08-19T10:06:37;28.20;99.90
51337;DHT22;37421;51.176;17.196;2022-08-19T10:09:07;28.10;99.90
51337;DHT22;37421;51.176;17.196;2022-08-19T10:11:34;28.20;99.90
51337;DHT22;37421;51.176;17.196;2022-08-19T10:14:01;28.20;99.90
51337;DHT22;37421;51.176;17.196;2022-08-19T10:16:27;28.10;99.90
51337;DHT22;37421;51.176;17.196;2022-08-19T10:18:54;28.10;99.90
51337;DHT22;37421;51.176;17.196;2022-08-19T10:21:25;28.20;99.90
51337;DHT22;37421;51.176;17.196;2022-08-19T10:23:53;28.30;99.90
51337;DHT22;37421;51.176;17.196;2022-08-19T10:26:21;28.40;99.90
51337;DHT22;37421;51.176;17.196;2022-08-19T10:28:48;28.40;99.90
51337;DHT22;37421;51.176;17.196;2022-08-19T10:31:16;28.40;99.90
51337;DHT22;37421;51.176;17.196;2022-08-19T10:33:42;28.50;99.90
51337;DHT22;37421;51.176;17.196;2022-08-19T10:36:10;28.50;99.90
51337;DHT22;37421;51.176;17.196;2022-08-19T10:38:36;28.50;99.90
51337;DHT22;37421;51.176;17.196;2022-08-19T10:41:12;28.50;99.90
51337;DHT22;37421;51.176;17.196;2022-08-19T10:43:39;28.50;99.90
51337;DHT22;37421;51.176;17.196;2022-08-19T10:46:06;28.60;99.90
51337;DHT22;37421;51.176;17.196;2022-08-19T10:48:32;28.60;99.90
51337;DHT22;37421;51.176;17.196;2022-08-19T10:50:59;28.60;99.90
51337;DHT22;37421;51.176;17.196;2022-08-19T10:53:43;28.60;99.90
51337;DHT22;37421;51.176;17.196;2022-08-19T10:56:08;28.60;99.90
51337;DHT22;37421;51.176;17.196;2022-08-19T10:58:53;28.60;99.90
51337;DHT22;37421;51.176;17.196;2022-08-19T11:01:19;28.60;99.90
51337;DHT22;37421;51.176;17.196;2022-08-19T11:03:45;28.70;99.90
51337;DHT22;37421;51.176;17.196;2022-08-19T11:06:11;28.70;99.90
51337;DHT22;37421;51.176;17.196;2022-08-19T11:08:37;28.70;99.90
51337;DHT22;37421;51.176;17.196;2022-08-19T11:11:03;28.70;99.90
51337;DHT22;37421;51.176;17.196;2022-08-19T11:13:30;28.70;99.90
51337;DHT22;37421;51.176;17.196;2022-08-19T11:16:00;28.70;99.90
51337;DHT22;37421;51.176;17.196;2022-08-19T11:18:27;28.80;99.90
51337;DHT22;37421;51.176;17.196;2022-08-19T11:20:53;28.80;99.90
51337;DHT22;37421;51.176;17.196;2022-08-19T11:23:19;28.90;99.90
51337;DHT22;37421;51.176;17.196;2022-08-19T11:25:44;29.00;99.90
51337;DHT22;37421;51.176;17.196;2022-08-19T11:28:11;29.00;99.90
51337;DHT22;37421;51.176;17.196;2022-08-19T11:30:37;29.00;99.90
51337;DHT22;37421;51.176;17.196;2022-08-19T11:33:03;28.90;99.90
51337;DHT22;37421;51.176;17.196;2022-08-19T11:35:29;29.00;99.90
51337;DHT22;37421;51.176;17.196;2022-08-19T11:37:55;29.00;99.90
51337;DHT22;37421;51.176;17.196;2022-08-19T11:40:23;29.10;99.90
51337;DHT22;37421;51.176;17.196;2022-08-19T11:42:49;29.10;99.90
51337;DHT22;37421;51.176;17.196;2022-08-19T11:45:22;29.10;99.90
51337;DHT22;37421;51.176;17.196;2022-08-19T11:47:48;29.20;99.90
51337;DHT22;37421;51.176;17.196;2022-08-19T11:50:14;29.20;99.90
51337;DHT22;37421;51.176;17.196;2022-08-19T11:52:40;29.20;99.90
51337;DHT22;37421;51.176;17.196;2022-08-19T11:55:06;29.20;99.90
51337;DHT22;37421;51.176;17.196;2022-08-19T11:57:32;29.20;99.90
51337;DHT22;37421;51.176;17.196;2022-08-19T11:59:58;29.10;99.90
51337;DHT22;37421;51.176;17.196;2022-08-19T12:02:24;29.10;99.90
51337;DHT22;37421;51.176;17.196;2022-08-19T12:04:51;29.00;99.90
51337;DHT22;37421;51.176;17.196;2022-08-19T12:07:16;29.00;99.90
51337;DHT22;37421;51.176;17.196;2022-08-19T12:09:45;29.20;99.90
51337;DHT22;37421;51.176;17.196;2022-08-19T12:12:11;29.20;99.90
51337;DHT22;37421;51.176;17.196;2022-08-19T12:14:37;29.30;99.90
51337;DHT22;37421;51.176;17.196;2022-08-19T12:17:03;29.30;99.90
51337;DHT22;37421;51.176;17.196;2022-08-19T12:19:31;29.30;99.90
51337;DHT22;37421;51.176;17.196;2022-08-19T12:21:58;29.30;99.90
51337;DHT22;37421;51.176;17.196;2022-08-19T12:24:32;29.30;99.90
51337;DHT22;37421;51.176;17.196;2022-08-19T12:26:59;29.30;99.90
51337;DHT22;37421;51.176;17.196;2022-08-19T12:29:27;29.30;99.90
51337;DHT22;37421;51.176;17.196;2022-08-19T12:31:55;29.40;99.90
51337;DHT22;37421;51.176;17.196;2022-08-19T12:34:26;29.40;99.90
51337;DHT22;37421;51.176;17.196;2022-08-19T12:36:56;29.40;99.90
51337;DHT22;37421;51.176;17.196;2022-08-19T12:39:22;29.40;99.90
51337;DHT22;37421;51.176;17.196;2022-08-19T12:41:48;29.50;99.90
51337;DHT22;37421;51.176;17.196;2022-08-19T12:44:14;29.50;99.90
51337;DHT22;37421;51.176;17.196;2022-08-19T12:46:40;29.50;99.90
51337;DHT22;37421;51.176;17.196;2022-08-19T12:49:06;29.50;99.90
51337;DHT22;37421;51.176;17.196;2022-08-19T12:51:32;29.50;99.90
51337;DHT22;37421;51.176;17.196;2022-08-19T12:53:58;29.50;99.90
51337;DHT22;37421;51.176;17.196;2022-08-19T12:56:24;29.50;99.90
51337;DHT22;37421;51.176;17.196;2022-08-19T12:58:50;29.60;99.90
51337;DHT22;37421;51.176;17.196;2022-08-19T13:01:22;29.60;99.90
51337;DHT22;37421;51.176;17.196;2022-08-19T13:03:48;29.50;99.90
51337;DHT22;37421;51.176;17.196;2022-08-19T13:06:14;29.60;99.90
51337;DHT22;37421;51.176;17.196;2022-08-19T13:08:41;29.70;99.90
51337;DHT22;37421;51.176;17.196;2022-08-19T13:11:08;29.70;99.90
51337;DHT22;37421;51.176;17.196;2022-08-19T13:13:37;29.70;99.90
51337;DHT22;37421;51.176;17.196;2022-08-19T13:16:06;29.60;99.90
51337;DHT22;37421;51.176;17.196;2022-08-19T13:18:32;29.60;99.90
51337;DHT22;37421;51.176;17.196;2022-08-19T13:21:02;29.60;99.90
51337;DHT22;37421;51.176;17.196;2022-08-19T13:23:33;29.70;99.90
51337;DHT22;37421;51.176;17.196;2022-08-19T13:25:59;29.70;99.90
51337;DHT22;37421;51.176;17.196;2022-08-19T13:28:26;29.80;99.90
51337;DHT22;37421;51.176;17.196;2022-08-19T13:30:52;29.80;99.90
51337;DHT22;37421;51.176;17.196;2022-08-19T13:33:36;29.80;99.90
51337;DHT22;37421;51.176;17.196;2022-08-19T13:36:02;29.80;99.90
51337;DHT22;37421;51.176;17.196;2022-08-19T13:38:27;29.80;99.90
51337;DHT22;37421;51.176;17.196;2022-08-19T13:40:54;29.80;99.90
51337;DHT22;37421;51.176;17.196;2022-08-19T13:43:22;29.80;99.90
51337;DHT22;37421;51.176;17.196;2022-08-19T13:45:48;29.80;99.90
51337;DHT22;37421;51.176;17.196;2022-08-19T13:48:14;29.80;99.90
51337;DHT22;37421;51.176;17.196;2022-08-19T13:50:42;29.80;99.90
51337;DHT22;37421;51.176;17.196;2022-08-19T13:53:09;29.80;99.90
51337;DHT22;37421;51.176;17.196;2022-08-19T13:55:35;29.80;99.90
51337;DHT22;37421;51.176;17.196;2022-08-19T13:58:02;29.70;99.90
51337;DHT22;37421;51.176;17.196;2022-08-19T14:00:30;29.70;99.90
51337;DHT22;37421;51.176;17.196;2022-08-19T14:02:57;29.70;99.90
51337;DHT22;37421;51.176;17.196;2022-08-19T14:05:24;29.60;99.90
51337;DHT22;37421;51.176;17.196;2022-08-19T14:07:51;29.50;99.90
51337;DHT22;37421;51.176;17.196;2022-08-19T14:10:17;29.50;99.90
51337;DHT22;37421;51.176;17.196;2022-08-19T14:12:43;29.50;99.90
51337;DHT22;37421;51.176;17.196;2022-08-19T14:15:09;29.50;99.90
51337;DHT22;37421;51.176;17.196;2022-08-19T14:17:39;29.50;99.90
51337;DHT22;37421;51.176;17.196;2022-08-19T14:20:05;29.50;99.90
51337;DHT22;37421;51.176;17.196;2022-08-19T14:22:38;29.50;99.90
51337;DHT22;37421;51.176;17.196;2022-08-19T14:25:05;29.50;99.90
51337;DHT22;37421;51.176;17.196;2022-08-19T14:27:38;29.50;99.90
51337;DHT22;37421;51.176;17.196;2022-08-19T14:30:04;29.50;99.90
51337;DHT22;37421;51.176;17.196;2022-08-19T14:32:32;29.50;99.90
51337;DHT22;37421;51.176;17.196;2022-08-19T14:34:58;29.50;99.90
51337;DHT22;37421;51.176;17.196;2022-08-19T14:37:24;29.50;99.90
51337;DHT22;37421;51.176;17.196;2022-08-19T14:39:50;29.40;99.90
51337;DHT22;37421;51.176;17.196;2022-08-19T14:42:16;29.30;99.90
51337;DHT22;37421;51.176;17.196;2022-08-19T14:44:42;29.30;99.90
51337;DHT22;37421;51.176;17.196;2022-08-19T14:47:08;29.30;99.90
51337;DHT22;37421;51.176;17.196;2022-08-19T14:49:34;29.30;99.90
51337;DHT22;37421;51.176;17.196;2022-08-19T14:52:00;29.30;99.90
51337;DHT22;37421;51.176;17.196;2022-08-19T14:54:27;29.30;99.90
51337;DHT22;37421;51.176;17.196;2022-08-19T14:56:52;29.20;99.90
51337;DHT22;37421;51.176;17.196;2022-08-19T14:59:19;29.20;99.90
51337;DHT22;37421;51.176;17.196;2022-08-19T15:01:45;29.20;99.90
51337;DHT22;37421;51.176;17.196;2022-08-19T15:04:11;29.20;99.90
51337;DHT22;37421;51.176;17.196;2022-08-19T15:06:37;29.30;99.90
51337;DHT22;37421;51.176;17.196;2022-08-19T15:09:03;29.20;99.90
51337;DHT22;37421;51.176;17.196;2022-08-19T15:11:29;29.20;99.90
51337;DHT22;37421;51.176;17.196;2022-08-19T15:13:55;29.20;99.90
51337;DHT22;37421;51.176;17.196;2022-08-19T15:16:22;29.20;99.90
51337;DHT22;37421;51.176;17.196;2022-08-19T15:18:49;29.20;99.90
51337;DHT22;37421;51.176;17.196;2022-08-19T15:21:15;29.20;99.90